createdAt,value
2018-07-21T00:01:27.545Z,20.90
2018-07-21T00:03:55.001Z,20.90
2018-07-21T00:06:22.465Z,20.90
2018-07-21T00:08:50.035Z,20.80
2018-07-21T00:11:17.579Z,20.90
2018-07-21T00:13:45.045Z,20.70
2018-07-21T00:16:12.499Z,20.80
2018-07-21T00:18:39.958Z,20.90
2018-07-21T00:21:07.422Z,20.80
2018-07-21T00:23:34.995Z,20.60
2018-07-21T00:26:02.472Z,20.60
2018-07-21T00:28:31.453Z,20.50
2018-07-21T00:30:58.903Z,20.50
2018-07-21T00:33:26.370Z,20.60
2018-07-21T00:35:53.827Z,20.60
2018-07-21T00:38:21.312Z,20.70
2018-07-21T00:40:49.548Z,20.60
2018-07-21T00:43:17.008Z,20.50
2018-07-21T00:45:44.505Z,20.60
2018-07-21T00:48:11.959Z,20.60
2018-07-21T00:50:39.425Z,20.60
2018-07-21T00:53:06.900Z,20.60
2018-07-21T00:55:34.371Z,20.60
2018-07-21T00:58:01.827Z,20.50
2018-07-21T01:00:29.383Z,20.40
2018-07-21T01:02:56.842Z,20.60
2018-07-21T01:05:24.775Z,20.50
2018-07-21T01:07:52.228Z,20.40
2018-07-21T01:10:19.695Z,20.30
2018-07-21T01:12:47.146Z,20.40
2018-07-21T01:15:15.371Z,20.40
2018-07-21T01:17:42.844Z,20.30
2018-07-21T01:20:10.291Z,20.20
2018-07-21T01:22:37.755Z,20.30
2018-07-21T01:25:05.228Z,20.20
2018-07-21T01:27:32.693Z,20.30
2018-07-21T01:30:00.149Z,20.30
2018-07-21T01:32:27.596Z,20.40
2018-07-21T01:34:55.060Z,20.20
2018-07-21T01:37:22.510Z,20.10
2018-07-21T01:39:49.974Z,20.20
2018-07-21T01:42:18.046Z,20.10
2018-07-21T01:44:45.502Z,20.10
2018-07-21T01:47:13.000Z,20.10
2018-07-21T01:49:40.467Z,20.10
2018-07-21T01:52:08.035Z,20.00
2018-07-21T01:54:35.495Z,20.10
2018-07-21T01:57:03.030Z,20.00
2018-07-21T01:59:30.518Z,19.90
2018-07-21T02:01:58.078Z,19.90
2018-07-21T02:04:25.551Z,20.20
2018-07-21T02:06:53.821Z,20.00
2018-07-21T02:09:21.296Z,20.00
2018-07-21T02:11:49.530Z,19.80
2018-07-21T02:14:17.033Z,19.80
2018-07-21T02:16:44.480Z,19.90
2018-07-21T02:19:11.972Z,19.90
2018-07-21T02:21:40.196Z,19.90
2018-07-21T02:24:07.686Z,19.90
2018-07-21T02:26:35.255Z,19.90
2018-07-21T02:29:02.821Z,19.80
2018-07-21T02:31:30.271Z,19.90
2018-07-21T02:33:57.739Z,19.90
2018-07-21T02:36:25.213Z,19.80
2018-07-21T02:38:52.774Z,19.90
2018-07-21T02:41:20.336Z,19.80
2018-07-21T02:43:47.804Z,19.70
2018-07-21T02:46:15.260Z,19.70
2018-07-21T02:48:42.722Z,19.60
2018-07-21T02:51:10.179Z,19.70
2018-07-21T02:53:37.748Z,19.70
2018-07-21T02:56:05.220Z,19.80
2018-07-21T02:58:32.675Z,19.70
2018-07-21T03:01:01.252Z,19.70
2018-07-21T03:03:28.723Z,19.70
2018-07-21T03:05:56.346Z,19.60
2018-07-21T03:08:23.849Z,19.40
2018-07-21T03:10:51.412Z,19.40
2018-07-21T03:13:18.874Z,19.40
2018-07-21T03:15:46.341Z,19.60
2018-07-21T03:18:13.909Z,19.60
2018-07-21T03:20:41.470Z,19.30
2018-07-21T03:23:09.104Z,19.20
2018-07-21T03:25:36.595Z,19.10
2018-07-21T03:28:04.161Z,19.30
2018-07-21T03:30:31.721Z,19.20
2018-07-21T03:32:59.172Z,19.20
2018-07-21T03:35:26.646Z,19.20
2018-07-21T03:37:54.694Z,19.20
2018-07-21T03:40:22.143Z,19.20
2018-07-21T03:42:49.611Z,19.10
2018-07-21T03:45:17.074Z,19.10
2018-07-21T03:47:44.542Z,19.00
2018-07-21T03:50:12.040Z,19.10
2018-07-21T03:52:39.497Z,19.00
2018-07-21T03:55:07.019Z,18.90
2018-07-21T03:57:34.520Z,18.90
2018-07-21T04:00:02.090Z,19.00
2018-07-21T04:02:29.543Z,18.90
2018-07-21T04:04:57.018Z,18.90
2018-07-21T04:07:24.484Z,18.90
2018-07-21T04:09:51.956Z,19.00
2018-07-21T04:12:19.498Z,19.00
2018-07-21T04:14:46.946Z,18.90
2018-07-21T04:17:14.408Z,19.00
2018-07-21T04:19:41.866Z,19.10
2018-07-21T04:22:09.328Z,18.90
2018-07-21T04:24:36.795Z,18.90
2018-07-21T04:27:04.275Z,19.00
2018-07-21T04:29:31.793Z,19.10
2018-07-21T04:31:59.300Z,19.20
2018-07-21T04:34:26.859Z,19.10
2018-07-21T04:36:54.425Z,19.10
2018-07-21T04:39:21.999Z,19.00
2018-07-21T04:41:49.464Z,18.90
2018-07-21T04:44:17.685Z,19.00
2018-07-21T04:46:45.173Z,19.00
2018-07-21T04:49:12.657Z,19.00
2018-07-21T04:51:40.127Z,18.90
2018-07-21T04:54:07.680Z,18.90
2018-07-21T04:56:35.241Z,18.90
2018-07-21T04:59:02.770Z,18.90
2018-07-21T05:01:30.218Z,19.10
2018-07-21T05:03:57.804Z,19.10
2018-07-21T05:06:25.303Z,19.10
2018-07-21T05:08:52.869Z,19.10
2018-07-21T05:11:20.452Z,19.30
2018-07-21T05:13:47.998Z,19.20
2018-07-21T05:16:15.556Z,19.20
2018-07-21T05:18:43.031Z,19.30
2018-07-21T05:21:10.484Z,19.30
2018-07-21T05:23:38.044Z,19.30
2018-07-21T05:26:05.518Z,19.30
2018-07-21T05:28:32.979Z,19.30
2018-07-21T05:31:01.212Z,19.40
2018-07-21T05:33:29.754Z,19.40
2018-07-21T05:35:57.167Z,19.60
2018-07-21T05:38:24.656Z,19.60
2018-07-21T05:40:52.222Z,19.70
2018-07-21T05:43:19.788Z,19.60
2018-07-21T05:45:47.256Z,19.80
2018-07-21T05:48:14.815Z,19.80
2018-07-21T05:50:42.376Z,20.00
2018-07-21T05:53:09.896Z,20.00
2018-07-21T05:55:37.292Z,19.90
2018-07-21T05:58:04.754Z,20.00
2018-07-21T06:00:32.236Z,20.10
2018-07-21T06:02:59.693Z,20.20
2018-07-21T06:05:27.257Z,20.20
2018-07-21T06:07:54.853Z,20.20
2018-07-21T06:10:22.583Z,20.30
2018-07-21T06:12:50.037Z,20.40
2018-07-21T06:15:17.495Z,20.40
2018-07-21T06:17:44.966Z,20.40
2018-07-21T06:20:12.431Z,20.50
2018-07-21T06:22:40.003Z,20.70
2018-07-21T06:25:07.459Z,20.60
2018-07-21T06:27:34.933Z,20.60
2018-07-21T06:30:02.378Z,20.70
2018-07-21T06:32:29.857Z,20.70
2018-07-21T06:34:57.308Z,20.70
2018-07-21T06:37:24.790Z,20.80
2018-07-21T06:39:52.243Z,20.90
2018-07-21T06:42:19.699Z,20.90
2018-07-21T06:44:47.159Z,21.00
2018-07-21T06:47:14.724Z,21.00
2018-07-21T06:49:42.470Z,21.10
2018-07-21T06:52:09.962Z,21.10
2018-07-21T06:54:37.590Z,21.30
2018-07-21T06:57:05.756Z,21.30
2018-07-21T06:59:33.217Z,21.30
2018-07-21T07:02:00.678Z,21.50
2018-07-21T07:04:28.183Z,21.50
2018-07-21T07:06:55.738Z,21.50
2018-07-21T07:09:23.207Z,21.50
2018-07-21T07:11:50.679Z,21.50
2018-07-21T07:14:18.125Z,21.60
2018-07-21T07:16:45.694Z,21.60
2018-07-21T07:19:13.140Z,21.70
2018-07-21T07:21:40.629Z,21.80
2018-07-21T07:24:08.091Z,22.00
2018-07-21T07:26:35.663Z,22.00
2018-07-21T07:29:05.374Z,22.10
2018-07-21T07:31:32.925Z,22.10
2018-07-21T07:34:00.378Z,22.20
2018-07-21T07:36:27.836Z,22.30
2018-07-21T07:38:55.307Z,22.40
2018-07-21T07:41:22.773Z,22.60
2018-07-21T07:43:50.342Z,22.60
2018-07-21T07:46:17.811Z,22.60
2018-07-21T07:48:46.769Z,22.70
2018-07-21T07:51:14.219Z,22.80
2018-07-21T07:53:41.683Z,22.70
2018-07-21T07:56:09.190Z,22.60
2018-07-21T07:58:36.661Z,22.80
2018-07-21T08:01:04.131Z,22.90
2018-07-21T08:03:31.677Z,23.10
2018-07-21T08:05:59.657Z,23.30
2018-07-21T08:08:27.137Z,23.30
2018-07-21T08:10:55.390Z,23.30
2018-07-21T08:13:22.965Z,23.30
2018-07-21T08:15:50.425Z,23.20
2018-07-21T08:18:17.921Z,23.20
2018-07-21T08:20:45.353Z,23.30
2018-07-21T08:23:14.308Z,23.50
2018-07-21T08:25:41.796Z,23.50
2018-07-21T08:28:09.354Z,23.70
2018-07-21T08:30:36.805Z,23.90
2018-07-21T08:33:04.279Z,23.90
2018-07-21T08:35:31.747Z,24.00
2018-07-21T08:37:59.233Z,24.00
2018-07-21T08:40:27.493Z,24.20
2018-07-21T08:42:54.952Z,24.20
2018-07-21T08:45:22.415Z,24.40
2018-07-21T08:47:49.892Z,24.50
2018-07-21T08:50:17.451Z,24.20
2018-07-21T08:52:44.912Z,23.90
2018-07-21T08:55:12.374Z,23.70
2018-07-21T08:57:39.839Z,24.00
2018-07-21T09:00:08.823Z,24.00
2018-07-21T09:02:36.293Z,24.00
2018-07-21T09:05:03.753Z,24.20
2018-07-21T09:07:31.308Z,24.40
2018-07-21T09:09:58.880Z,24.20
2018-07-21T09:12:26.340Z,24.40
2018-07-21T09:14:53.804Z,24.50
2018-07-21T09:17:21.281Z,24.50
2018-07-21T09:19:50.251Z,24.30
2018-07-21T09:22:17.725Z,24.30
2018-07-21T09:24:45.562Z,24.40
2018-07-21T09:27:13.024Z,24.50
2018-07-21T09:29:40.517Z,24.50
2018-07-21T09:32:07.988Z,24.40
2018-07-21T09:34:35.436Z,24.20
2018-07-21T09:37:03.015Z,24.30
2018-07-21T09:39:30.467Z,24.50
2018-07-21T09:41:57.943Z,24.50
2018-07-21T09:44:25.404Z,24.40
2018-07-21T09:46:54.368Z,24.50
2018-07-21T09:49:21.835Z,24.50
2018-07-21T09:51:49.333Z,24.60
2018-07-21T09:54:16.787Z,24.50
2018-07-21T09:56:45.761Z,24.80
2018-07-21T09:59:13.209Z,24.80
2018-07-21T10:01:40.711Z,24.90
2018-07-21T10:04:08.140Z,25.10
2018-07-21T10:06:35.609Z,25.00
2018-07-21T10:09:03.062Z,24.90
2018-07-21T10:11:30.527Z,24.90
2018-07-21T10:13:57.987Z,24.80
2018-07-21T10:16:25.467Z,25.00
2018-07-21T10:18:52.926Z,25.00
2018-07-21T10:21:20.385Z,25.00
2018-07-21T10:23:48.023Z,25.10
2018-07-21T10:29:07.956Z,25.00
2018-07-21T10:31:35.425Z,25.10
2018-07-21T10:34:03.648Z,25.20
2018-07-21T10:36:31.114Z,25.20
2018-07-21T10:38:59.445Z,25.40
2018-07-21T10:41:26.903Z,25.40
2018-07-21T10:43:54.369Z,25.50
2018-07-21T10:46:21.934Z,25.50
2018-07-21T10:48:50.677Z,25.50
2018-07-21T10:51:18.186Z,25.60
2018-07-21T10:53:45.750Z,25.60
2018-07-21T10:56:13.223Z,25.60
2018-07-21T10:58:40.679Z,25.60
2018-07-21T11:01:08.245Z,25.60
2018-07-21T11:03:35.712Z,25.70
2018-07-21T11:06:03.170Z,25.60
2018-07-21T11:08:30.727Z,25.70
2018-07-21T11:10:58.245Z,25.70
2018-07-21T11:13:25.747Z,25.80
2018-07-21T11:15:53.315Z,25.70
2018-07-21T11:18:20.779Z,25.40
2018-07-21T11:20:48.250Z,25.20
2018-07-21T11:23:15.712Z,25.50
2018-07-21T11:25:43.943Z,25.70
2018-07-21T11:28:11.402Z,25.70
2018-07-21T11:30:38.873Z,25.70
2018-07-21T11:33:06.340Z,25.70
2018-07-21T11:35:33.903Z,25.70
2018-07-21T11:38:01.300Z,25.60
2018-07-21T11:40:28.754Z,25.70
2018-07-21T11:42:56.325Z,25.70
2018-07-21T11:45:23.793Z,25.70
2018-07-21T11:47:51.252Z,25.70
2018-07-21T11:50:18.723Z,25.90
2018-07-21T11:52:47.681Z,26.00
2018-07-21T11:55:15.144Z,26.00
2018-07-21T11:57:42.587Z,25.90
2018-07-21T12:00:10.083Z,25.90
2018-07-21T12:02:37.553Z,26.00
2018-07-21T12:05:05.029Z,26.00
2018-07-21T12:07:33.615Z,26.20
2018-07-21T12:10:01.089Z,26.10
2018-07-21T12:12:29.340Z,26.50
2018-07-21T12:14:56.812Z,26.40
2018-07-21T12:17:24.373Z,26.20
2018-07-21T12:19:51.852Z,26.40
2018-07-21T12:22:19.394Z,26.50
2018-07-21T12:24:46.957Z,26.20
2018-07-21T12:27:14.524Z,26.50
2018-07-21T12:29:42.085Z,26.30
2018-07-21T12:32:09.673Z,26.40
2018-07-21T12:34:37.127Z,26.30
2018-07-21T12:37:04.676Z,26.40
2018-07-21T12:39:32.248Z,26.60
2018-07-21T12:41:59.804Z,26.80
2018-07-21T12:44:27.946Z,26.40
2018-07-21T12:46:55.400Z,26.20
2018-07-21T12:49:22.872Z,25.90
2018-07-21T12:51:50.344Z,26.10
2018-07-21T12:54:17.820Z,26.10
2018-07-21T12:56:45.287Z,26.40
2018-07-21T12:59:12.743Z,26.40
2018-07-21T13:01:40.200Z,26.20
2018-07-21T13:04:07.687Z,26.20
2018-07-21T13:06:35.922Z,26.30
2018-07-21T13:09:03.382Z,26.30
2018-07-21T13:11:30.842Z,26.30
2018-07-21T13:13:58.357Z,26.00
2018-07-21T13:16:25.924Z,26.50
2018-07-21T13:18:54.163Z,26.70
2018-07-21T13:21:21.625Z,26.70
2018-07-21T13:23:49.122Z,26.70
2018-07-21T13:26:16.674Z,26.80
2018-07-21T13:28:44.134Z,26.70
2018-07-21T13:31:11.609Z,26.50
2018-07-21T13:33:39.164Z,26.50
2018-07-21T13:36:06.637Z,26.60
2018-07-21T13:38:34.207Z,26.70
2018-07-21T13:41:01.758Z,26.60
2018-07-21T13:43:29.223Z,26.60
2018-07-21T13:45:56.801Z,26.60
2018-07-21T13:48:24.364Z,26.50
2018-07-21T13:50:51.823Z,26.50
2018-07-21T13:53:20.095Z,26.40
2018-07-21T13:55:48.700Z,26.50
2018-07-21T13:58:17.673Z,26.60
2018-07-21T14:00:45.115Z,26.60
2018-07-21T14:03:12.611Z,26.00
2018-07-21T14:05:40.056Z,26.00
2018-07-21T14:08:07.619Z,26.10
2018-07-21T14:10:35.092Z,26.40
2018-07-21T14:13:02.652Z,26.80
2018-07-21T14:15:30.939Z,26.80
2018-07-21T14:17:58.502Z,26.70
2018-07-21T14:20:25.948Z,26.30
2018-07-21T14:22:53.413Z,26.50
2018-07-21T14:25:20.893Z,26.20
2018-07-21T14:27:48.447Z,26.60
2018-07-21T14:30:15.907Z,26.40
2018-07-21T14:32:43.374Z,26.50
2018-07-21T14:35:10.823Z,26.80
2018-07-21T14:37:38.281Z,26.90
2018-07-21T14:40:06.440Z,26.80
2018-07-21T14:42:33.900Z,26.60
2018-07-21T14:45:01.365Z,26.30
2018-07-21T14:47:28.883Z,26.20
2018-07-21T14:49:56.351Z,26.30
2018-07-21T14:52:24.934Z,25.90
2018-07-21T14:54:52.570Z,26.00
2018-07-21T14:57:19.952Z,26.00
2018-07-21T14:59:48.222Z,26.20
2018-07-21T15:02:15.699Z,26.10
2018-07-21T15:04:43.160Z,26.30
2018-07-21T15:07:10.625Z,26.20
2018-07-21T15:09:38.094Z,26.30
2018-07-21T15:12:05.551Z,26.20
2018-07-21T15:14:33.007Z,26.40
2018-07-21T15:17:00.575Z,26.50
2018-07-21T15:19:28.015Z,26.60
2018-07-21T15:21:55.527Z,26.40
2018-07-21T15:24:23.049Z,26.10
2018-07-21T15:26:50.490Z,26.50
2018-07-21T15:29:17.959Z,26.20
2018-07-21T15:31:45.447Z,26.30
2018-07-21T15:34:12.911Z,26.30
2018-07-21T15:36:41.900Z,26.00
2018-07-21T15:39:09.355Z,26.00
2018-07-21T15:41:36.851Z,25.80
2018-07-21T15:44:04.387Z,25.70
2018-07-21T15:46:31.846Z,25.80
2018-07-21T15:48:59.419Z,25.90
2018-07-21T15:51:26.879Z,26.00
2018-07-21T15:53:54.450Z,25.90
2018-07-21T15:56:21.909Z,25.90
2018-07-21T15:58:50.592Z,25.40
2018-07-21T16:01:19.395Z,25.60
2018-07-21T16:03:46.889Z,25.60
2018-07-21T16:06:15.219Z,25.70
2018-07-21T16:08:42.713Z,25.70
2018-07-21T16:11:10.148Z,25.60
2018-07-21T16:13:37.609Z,25.50
2018-07-21T16:16:05.084Z,25.70
2018-07-21T16:18:32.649Z,25.40
2018-07-21T16:21:00.097Z,25.40
2018-07-21T16:23:27.668Z,25.20
2018-07-21T16:25:55.123Z,25.40
2018-07-21T16:28:22.597Z,25.60
2018-07-21T16:30:50.831Z,25.10
2018-07-21T16:35:47.728Z,25.30
2018-07-21T16:38:15.168Z,25.10
2018-07-21T16:40:42.632Z,25.40
2018-07-21T16:43:10.084Z,25.30
2018-07-21T16:45:38.719Z,24.90
2018-07-21T16:48:06.164Z,25.00
2018-07-21T16:50:33.639Z,25.10
2018-07-21T16:53:01.205Z,25.10
2018-07-21T16:55:28.667Z,24.90
2018-07-21T16:57:56.119Z,24.90
2018-07-21T17:00:23.582Z,24.80
2018-07-21T17:02:51.040Z,24.80
2018-07-21T17:05:18.523Z,24.50
2018-07-21T17:07:46.079Z,24.70
2018-07-21T17:10:13.535Z,24.50
2018-07-21T17:12:41.005Z,24.20
2018-07-21T17:15:08.444Z,24.10
2018-07-21T17:17:35.903Z,24.30
2018-07-21T17:20:03.393Z,24.00
2018-07-21T17:22:30.856Z,24.00
2018-07-21T17:24:59.826Z,24.00
2018-07-21T17:27:27.283Z,24.00
2018-07-21T17:29:54.839Z,23.70
2018-07-21T17:32:22.236Z,23.60
2018-07-21T17:34:49.793Z,23.70
2018-07-21T17:37:17.268Z,23.80
2018-07-21T17:39:45.494Z,23.90
2018-07-21T17:42:12.947Z,23.90
2018-07-21T17:44:40.457Z,23.80
2018-07-21T17:47:07.905Z,23.80
2018-07-21T17:49:35.366Z,23.90
2018-07-21T17:52:02.828Z,23.70
2018-07-21T17:54:30.987Z,23.70
2018-07-21T17:56:58.449Z,23.50
2018-07-21T17:59:25.908Z,23.50
2018-07-21T18:01:53.364Z,23.60
2018-07-21T18:04:20.825Z,23.60
2018-07-21T18:06:48.335Z,23.30
2018-07-21T18:09:15.895Z,23.60
2018-07-21T18:11:43.477Z,23.50
2018-07-21T18:14:10.958Z,23.50
2018-07-21T18:16:39.168Z,23.10
2018-07-21T18:19:06.623Z,23.10
2018-07-21T18:21:34.085Z,23.10
2018-07-21T18:24:01.625Z,23.20
2018-07-21T18:26:29.859Z,23.10
2018-07-21T18:28:57.325Z,23.10
2018-07-21T18:31:25.167Z,23.00
2018-07-21T18:33:52.632Z,23.10
2018-07-21T18:36:20.115Z,22.90
2018-07-21T18:38:47.598Z,23.10
2018-07-21T18:41:15.158Z,22.90
2018-07-21T18:43:42.669Z,23.00
2018-07-21T18:46:11.006Z,23.00
2018-07-21T18:48:38.576Z,23.00
2018-07-21T18:51:07.562Z,22.60
2018-07-21T18:53:35.034Z,22.60
2018-07-21T18:56:03.269Z,22.60
2018-07-21T18:58:30.770Z,22.60
2018-07-21T19:00:58.190Z,22.60
2018-07-21T19:03:25.678Z,22.90
2018-07-21T19:05:53.135Z,22.50
2018-07-21T19:08:20.600Z,22.50
2018-07-21T19:10:48.071Z,22.40
2018-07-21T19:13:15.552Z,22.70
2018-07-21T19:15:43.013Z,22.60
2018-07-21T19:18:11.244Z,22.60
2018-07-21T19:23:31.199Z,22.60
2018-07-21T19:25:58.659Z,22.70
2018-07-21T19:28:26.119Z,22.60
2018-07-21T19:30:53.575Z,22.60
2018-07-21T19:33:21.141Z,22.50
2018-07-21T19:35:50.128Z,22.20
2018-07-21T19:38:17.589Z,22.10
2018-07-21T19:40:45.158Z,22.00
2018-07-21T19:43:12.620Z,22.00
2018-07-21T19:45:40.156Z,22.00
2018-07-21T19:48:07.561Z,22.10
2018-07-21T19:50:35.028Z,22.20
2018-07-21T19:53:02.472Z,21.90
2018-07-21T19:55:31.124Z,21.80
2018-07-21T19:57:58.566Z,21.80
2018-07-21T20:00:26.080Z,22.20
2018-07-21T20:02:53.526Z,22.10
2018-07-21T20:05:21.109Z,21.90
2018-07-21T20:07:48.578Z,21.90
2018-07-21T20:10:16.982Z,22.10
2018-07-21T20:12:45.222Z,22.10
2018-07-21T20:15:12.677Z,22.10
2018-07-21T20:17:40.136Z,21.90
2018-07-21T20:20:07.620Z,21.90
2018-07-21T20:22:35.094Z,21.70
2018-07-21T20:25:02.652Z,21.50
2018-07-21T20:27:30.203Z,21.50
2018-07-21T20:29:57.769Z,21.30
2018-07-21T20:32:25.331Z,21.40
2018-07-21T20:34:52.892Z,21.40
2018-07-21T20:37:20.445Z,21.60
2018-07-21T20:39:47.947Z,21.40
2018-07-21T20:42:15.353Z,21.40
2018-07-21T20:44:42.815Z,21.50
2018-07-21T20:47:10.273Z,21.40
2018-07-21T20:49:37.779Z,21.40
2018-07-21T20:52:05.337Z,21.50
2018-07-21T20:54:32.805Z,21.40
2018-07-21T20:57:00.417Z,21.40
2018-07-21T20:59:27.851Z,21.60
2018-07-21T21:01:56.070Z,21.40
2018-07-21T21:04:23.574Z,21.40
2018-07-21T21:06:51.021Z,21.00
2018-07-21T21:09:18.498Z,21.00
2018-07-21T21:11:45.981Z,21.00
2018-07-21T21:14:14.547Z,21.10
2018-07-21T21:16:42.110Z,21.10
2018-07-21T21:19:09.593Z,21.10
2018-07-21T21:21:37.816Z,21.00
2018-07-21T21:24:05.289Z,21.00
2018-07-21T21:26:32.757Z,20.70
2018-07-21T21:29:00.232Z,20.80
2018-07-21T21:31:27.686Z,21.00
2018-07-21T21:33:55.132Z,20.90
2018-07-21T21:36:22.604Z,20.80
2018-07-21T21:38:50.060Z,20.70
2018-07-21T21:41:17.567Z,20.70
2018-07-21T21:43:45.021Z,20.40
2018-07-21T21:46:12.495Z,20.30
2018-07-21T21:48:40.812Z,20.50
2018-07-21T21:51:08.637Z,20.50
2018-07-21T21:53:36.095Z,20.30
2018-07-21T21:56:04.340Z,20.40
2018-07-21T21:58:31.819Z,20.40
2018-07-21T22:00:59.314Z,20.50
2018-07-21T22:03:26.783Z,20.60
2018-07-21T22:05:55.004Z,20.60
2018-07-21T22:08:22.485Z,20.60
2018-07-21T22:10:50.066Z,20.60
2018-07-21T22:13:18.370Z,20.40
2018-07-21T22:15:46.599Z,20.50
2018-07-21T22:18:14.049Z,20.50
2018-07-21T22:20:41.516Z,20.60
2018-07-21T22:23:08.975Z,20.40
2018-07-21T22:25:36.481Z,20.20
2018-07-21T22:28:03.935Z,20.20
2018-07-21T22:30:32.941Z,20.20
2018-07-21T22:33:02.390Z,20.40
2018-07-21T22:35:29.895Z,20.40
2018-07-21T22:37:57.347Z,20.50
2018-07-21T22:40:24.836Z,20.30
2018-07-21T22:42:52.392Z,20.20
2018-07-21T22:45:20.609Z,20.30
2018-07-21T22:47:48.092Z,20.30
2018-07-21T22:50:15.536Z,20.10
2018-07-21T22:52:43.012Z,20.10
2018-07-21T22:55:10.479Z,19.90
2018-07-21T22:57:37.941Z,19.90
2018-07-21T23:00:05.412Z,20.00
2018-07-21T23:02:32.867Z,19.90
2018-07-21T23:05:00.327Z,19.70
2018-07-21T23:07:27.839Z,19.60
2018-07-21T23:09:56.164Z,19.70
2018-07-21T23:12:23.672Z,19.90
2018-07-21T23:14:51.228Z,20.00
2018-07-21T23:17:18.796Z,19.90
2018-07-21T23:19:46.271Z,19.90
2018-07-21T23:22:13.724Z,19.90
2018-07-21T23:24:41.190Z,19.80
2018-07-21T23:27:09.412Z,19.80
2018-07-21T23:29:36.883Z,19.80
2018-07-21T23:32:04.343Z,19.90
2018-07-21T23:34:31.839Z,19.70
2018-07-21T23:36:59.316Z,19.60
2018-07-21T23:39:26.878Z,19.70
2018-07-21T23:41:54.451Z,19.90
2018-07-21T23:44:22.677Z,19.70
2018-07-21T23:46:50.151Z,19.70
2018-07-21T23:49:17.602Z,19.60
2018-07-21T23:51:45.073Z,19.50
2018-07-21T23:54:12.536Z,19.50
2018-07-21T23:56:40.003Z,19.50
2018-07-21T23:59:07.476Z,19.40
